createdAt,value
2019-02-23T00:01:02.122Z,5.30
2019-02-23T00:03:31.311Z,5.30
2019-02-23T00:06:00.540Z,5.53
2019-02-23T00:08:29.743Z,5.83
2019-02-23T00:10:58.928Z,5.30
2019-02-23T00:13:28.166Z,4.83
2019-02-23T00:15:57.443Z,5.17
2019-02-23T00:18:26.795Z,4.90
2019-02-23T00:20:55.971Z,4.83
2019-02-23T00:23:25.210Z,5.13
2019-02-23T00:25:54.403Z,4.47
2019-02-23T00:28:23.581Z,4.73
2019-02-23T00:30:53.891Z,4.80
2019-02-23T00:33:23.083Z,4.50
2019-02-23T00:35:52.314Z,4.57
2019-02-23T00:38:21.519Z,4.40
2019-02-23T00:40:50.698Z,4.40
2019-02-23T00:43:19.903Z,4.37
2019-02-23T00:45:49.103Z,4.20
2019-02-23T00:48:18.347Z,4.17
2019-02-23T00:50:47.541Z,4.43
2019-02-23T00:53:16.749Z,4.23
2019-02-23T00:55:45.973Z,4.10
2019-02-23T00:58:15.248Z,4.07
2019-02-23T01:00:44.459Z,4.50
2019-02-23T01:03:13.640Z,4.37
2019-02-23T01:05:42.836Z,5.20
2019-02-23T01:08:12.039Z,4.57
2019-02-23T01:10:41.311Z,4.63
2019-02-23T01:13:10.514Z,4.63
2019-02-23T01:15:39.705Z,4.77
2019-02-23T01:18:08.917Z,4.57
2019-02-23T01:20:38.111Z,4.30
2019-02-23T01:23:07.300Z,4.33
2019-02-23T01:25:36.479Z,4.47
2019-02-23T01:28:05.762Z,4.37
2019-02-23T01:30:34.976Z,4.50
2019-02-23T01:33:04.180Z,4.40
2019-02-23T01:35:33.402Z,5.13
2019-02-23T01:38:02.571Z,4.50
2019-02-23T01:40:31.770Z,4.10
2019-02-23T01:43:01.040Z,4.57
2019-02-23T01:45:30.255Z,5.00
2019-02-23T01:47:59.464Z,5.13
2019-02-23T01:50:28.855Z,5.40
2019-02-23T01:52:58.055Z,4.90
2019-02-23T01:55:27.259Z,5.83
2019-02-23T01:57:56.455Z,5.13
2019-02-23T02:00:26.127Z,5.80
2019-02-23T02:02:55.314Z,6.80
2019-02-23T02:05:24.599Z,5.87
2019-02-23T02:07:53.803Z,6.50
2019-02-23T02:10:23.378Z,7.30
2019-02-23T02:12:52.610Z,7.10
2019-02-23T02:15:21.884Z,7.33
2019-02-23T02:17:51.088Z,8.43
2019-02-23T02:20:20.282Z,7.77
2019-02-23T02:22:49.512Z,7.20
2019-02-23T02:25:18.733Z,8.30
2019-02-23T02:27:47.976Z,7.50
2019-02-23T02:30:17.192Z,7.30
2019-02-23T02:32:46.379Z,7.40
2019-02-23T02:35:17.580Z,7.10
2019-02-23T02:37:46.735Z,7.03
2019-02-23T02:40:15.919Z,7.30
2019-02-23T02:42:45.146Z,7.93
2019-02-23T02:45:14.335Z,7.50
2019-02-23T02:47:43.564Z,7.07
2019-02-23T02:50:23.980Z,7.40
2019-02-23T02:52:43.721Z,6.77
2019-02-23T02:55:12.928Z,7.20
2019-02-23T02:57:42.127Z,7.23
2019-02-23T03:00:12.655Z,7.60
2019-02-23T03:02:41.862Z,7.23
2019-02-23T03:05:11.320Z,6.70
2019-02-23T03:07:40.504Z,6.27
2019-02-23T03:10:09.719Z,6.40
2019-02-23T03:12:38.903Z,6.70
2019-02-23T03:15:08.371Z,6.60
2019-02-23T03:17:37.574Z,5.63
2019-02-23T03:20:08.035Z,5.73
2019-02-23T03:22:37.233Z,5.90
2019-02-23T03:25:06.878Z,5.73
2019-02-23T03:27:36.072Z,5.63
2019-02-23T03:30:06.224Z,5.70
2019-02-23T03:32:35.436Z,5.43
2019-02-23T03:35:04.655Z,5.57
2019-02-23T03:37:33.896Z,5.47
2019-02-23T03:40:03.092Z,5.10
2019-02-23T03:42:32.296Z,5.97
2019-02-23T03:45:01.515Z,5.33
2019-02-23T03:47:30.768Z,5.10
2019-02-23T03:49:59.979Z,5.77
2019-02-23T03:52:29.220Z,4.97
2019-02-23T03:54:58.431Z,4.90
2019-02-23T03:57:27.682Z,4.57
2019-02-23T03:59:57.010Z,5.27
2019-02-23T04:02:26.257Z,5.20
2019-02-23T04:04:55.428Z,5.30
2019-02-23T04:07:24.623Z,4.60
2019-02-23T04:09:53.835Z,5.03
2019-02-23T04:12:23.033Z,4.70
2019-02-23T04:14:52.306Z,4.90
2019-02-23T04:17:21.488Z,4.53
2019-02-23T04:19:50.729Z,5.77
2019-02-23T04:22:19.945Z,5.03
2019-02-23T04:24:49.129Z,4.87
2019-02-23T04:27:18.359Z,4.60
2019-02-23T04:29:47.557Z,4.87
2019-02-23T04:32:16.775Z,4.83
2019-02-23T04:34:46.006Z,4.60
2019-02-23T04:37:15.233Z,4.90
2019-02-23T04:39:44.430Z,5.20
2019-02-23T04:42:13.682Z,5.07
2019-02-23T04:44:42.887Z,5.10
2019-02-23T04:47:12.115Z,5.57
2019-02-23T04:49:41.331Z,5.27
2019-02-23T04:52:10.625Z,4.93
2019-02-23T04:54:40.275Z,5.20
2019-02-23T04:57:09.487Z,5.30
2019-02-23T04:59:38.693Z,4.93
2019-02-23T05:02:07.984Z,4.97
2019-02-23T05:04:37.174Z,5.73
2019-02-23T05:07:06.399Z,5.53
2019-02-23T05:09:35.603Z,5.30
2019-02-23T05:12:04.775Z,5.43
2019-02-23T05:14:34.141Z,5.03
2019-02-23T05:17:03.335Z,5.03
2019-02-23T05:19:32.563Z,5.07
2019-02-23T05:22:01.772Z,5.23
2019-02-23T05:24:30.991Z,4.90
2019-02-23T05:27:00.272Z,4.47
2019-02-23T05:29:29.467Z,4.83
2019-02-23T05:31:58.656Z,4.80
2019-02-23T05:34:27.908Z,4.50
2019-02-23T05:36:57.115Z,4.53
2019-02-23T05:39:26.313Z,4.37
2019-02-23T05:41:55.543Z,4.67
2019-02-23T05:44:24.859Z,4.83
2019-02-23T05:46:54.107Z,4.60
2019-02-23T05:49:23.320Z,4.50
2019-02-23T05:51:52.713Z,4.50
2019-02-23T05:54:21.910Z,4.67
2019-02-23T05:56:51.167Z,4.60
2019-02-23T05:59:20.382Z,4.67
2019-02-23T06:01:49.656Z,4.37
2019-02-23T06:04:18.873Z,4.10
2019-02-23T06:06:48.079Z,4.50
2019-02-23T06:09:17.309Z,4.33
2019-02-23T06:11:46.504Z,4.37
2019-02-23T06:14:15.776Z,5.07
2019-02-23T06:16:44.971Z,4.53
2019-02-23T06:19:14.185Z,4.33
2019-02-23T06:21:52.971Z,4.33
2019-02-23T06:24:14.250Z,4.80
2019-02-23T06:26:43.364Z,5.40
2019-02-23T06:29:12.596Z,5.57
2019-02-23T06:31:41.799Z,4.97
2019-02-23T06:34:16.362Z,5.60
2019-02-23T06:36:41.880Z,4.97
2019-02-23T06:39:11.098Z,5.37
2019-02-23T06:41:40.295Z,5.27
2019-02-23T06:44:09.507Z,5.30
2019-02-23T06:46:38.711Z,5.53
2019-02-23T06:49:07.962Z,4.60
2019-02-23T06:51:37.159Z,5.60
2019-02-23T06:54:06.370Z,5.00
2019-02-23T06:56:35.546Z,5.43
2019-02-23T06:59:04.773Z,4.60
2019-02-23T07:01:33.961Z,5.50
2019-02-23T07:04:03.185Z,4.80
2019-02-23T07:06:32.385Z,5.20
2019-02-23T07:09:01.600Z,5.00
2019-02-23T07:11:30.808Z,5.07
2019-02-23T07:14:00.052Z,5.13
2019-02-23T07:16:29.265Z,5.43
2019-02-23T07:18:58.487Z,5.03
2019-02-23T07:21:28.348Z,4.97
2019-02-23T07:23:57.557Z,4.77
2019-02-23T07:26:26.768Z,4.77
2019-02-23T07:28:55.975Z,4.67
2019-02-23T07:31:25.220Z,5.70
2019-02-23T07:33:54.508Z,4.90
2019-02-23T07:36:23.813Z,4.37
2019-02-23T07:38:53.031Z,4.87
2019-02-23T07:41:22.252Z,5.00
2019-02-23T07:43:51.464Z,4.90
2019-02-23T07:46:20.688Z,5.60
2019-02-23T07:48:49.918Z,5.93
2019-02-23T07:51:19.215Z,6.33
2019-02-23T07:53:48.423Z,5.53
2019-02-23T07:56:17.719Z,6.77
2019-02-23T07:58:46.933Z,7.13
2019-02-23T08:01:16.179Z,7.00
2019-02-23T08:03:45.382Z,8.80
2019-02-23T08:06:14.616Z,7.40
2019-02-23T08:08:43.808Z,6.73
2019-02-23T08:11:13.059Z,6.60
2019-02-23T08:13:42.171Z,9.10
2019-02-23T08:16:11.419Z,8.80
2019-02-23T08:18:40.619Z,8.13
2019-02-23T08:21:09.812Z,9.43
2019-02-23T08:23:39.039Z,9.03
2019-02-23T08:26:09.173Z,7.13
2019-02-23T08:28:38.402Z,8.97
2019-02-23T08:31:07.598Z,8.63
2019-02-23T08:33:36.808Z,9.37
2019-02-23T08:36:05.983Z,8.57
2019-02-23T08:38:35.216Z,8.87
2019-02-23T08:41:04.446Z,8.53
2019-02-23T08:43:33.580Z,8.63
2019-02-23T08:46:02.789Z,7.80
2019-02-23T08:48:33.451Z,9.03
2019-02-23T08:51:02.872Z,9.03
2019-02-23T08:53:32.101Z,8.20
2019-02-23T08:56:01.319Z,7.30
2019-02-23T08:58:30.558Z,6.57
2019-02-23T09:00:59.767Z,7.90
2019-02-23T09:03:28.989Z,7.40
2019-02-23T09:05:58.211Z,7.33
2019-02-23T09:08:27.443Z,6.80
2019-02-23T09:10:56.661Z,7.10
2019-02-23T09:13:25.980Z,7.00
2019-02-23T09:15:55.192Z,7.20
2019-02-23T09:18:24.492Z,7.03
2019-02-23T09:20:53.691Z,7.07
2019-02-23T09:23:22.923Z,7.30
2019-02-23T09:25:52.195Z,7.00
2019-02-23T09:28:21.475Z,7.60
2019-02-23T09:30:50.779Z,7.40
2019-02-23T09:33:20.066Z,6.83
2019-02-23T09:35:49.296Z,6.40
2019-02-23T09:38:18.487Z,7.00
2019-02-23T09:40:47.647Z,7.83
2019-02-23T09:43:17.830Z,7.47
2019-02-23T09:45:47.261Z,7.77
2019-02-23T09:48:16.537Z,6.90
2019-02-23T09:50:45.764Z,7.63
2019-02-23T09:53:14.948Z,7.60
2019-02-23T09:55:44.172Z,7.27
2019-02-23T09:58:13.470Z,6.90
2019-02-23T10:00:42.704Z,6.60
2019-02-23T10:03:11.923Z,7.13
2019-02-23T10:05:41.152Z,6.67
2019-02-23T10:08:10.362Z,7.23
2019-02-23T10:10:39.591Z,7.20
2019-02-23T10:13:08.807Z,6.93
2019-02-23T10:15:38.023Z,7.03
2019-02-23T10:18:07.213Z,7.10
2019-02-23T10:20:36.524Z,7.33
2019-02-23T10:23:05.784Z,6.87
2019-02-23T10:25:35.025Z,6.47
2019-02-23T10:28:04.227Z,6.70
2019-02-23T10:30:33.441Z,6.33
2019-02-23T10:33:02.655Z,6.90
2019-02-23T10:35:31.880Z,7.00
2019-02-23T10:38:01.082Z,6.43
2019-02-23T10:40:30.334Z,6.67
2019-02-23T10:43:00.667Z,7.07
2019-02-23T10:45:29.871Z,6.30
2019-02-23T10:47:59.119Z,7.00
2019-02-23T10:50:28.309Z,6.60
2019-02-23T10:52:57.517Z,6.07
2019-02-23T10:55:26.744Z,6.70
2019-02-23T10:57:55.987Z,6.50
2019-02-23T11:00:25.656Z,6.33
2019-02-23T11:02:54.893Z,5.37
2019-02-23T11:05:24.175Z,6.13
2019-02-23T11:07:53.474Z,6.27
2019-02-23T11:10:23.143Z,6.17
2019-02-23T11:12:52.359Z,5.67
2019-02-23T11:15:22.342Z,6.80
2019-02-23T11:17:51.575Z,6.47
2019-02-23T11:20:21.139Z,5.97
2019-02-23T11:22:50.353Z,5.77
2019-02-23T11:25:19.580Z,6.33
2019-02-23T11:27:48.791Z,6.47
2019-02-23T11:30:18.046Z,6.90
2019-02-23T11:32:47.252Z,6.57
2019-02-23T11:35:17.648Z,6.23
2019-02-23T11:37:47.088Z,5.47
2019-02-23T11:40:16.334Z,6.10
2019-02-23T11:42:45.504Z,5.40
2019-02-23T11:45:14.816Z,5.63
2019-02-23T11:47:44.066Z,5.40
2019-02-23T11:50:13.384Z,5.60
2019-02-23T11:52:42.586Z,5.93
2019-02-23T11:55:11.811Z,5.43
2019-02-23T11:57:40.995Z,5.70
2019-02-23T12:00:10.435Z,5.63
2019-02-23T12:02:39.629Z,5.47
2019-02-23T12:05:09.566Z,5.87
2019-02-23T12:07:38.747Z,5.20
2019-02-23T12:10:09.975Z,5.73
2019-02-23T12:12:39.253Z,6.07
2019-02-23T12:15:08.817Z,5.60
2019-02-23T12:17:38.016Z,5.83
2019-02-23T12:20:07.528Z,5.87
2019-02-23T12:22:36.740Z,5.70
2019-02-23T12:25:06.035Z,6.43
2019-02-23T12:27:35.233Z,5.50
2019-02-23T12:30:04.467Z,5.30
2019-02-23T12:32:33.652Z,5.67
2019-02-23T12:35:02.853Z,5.40
2019-02-23T12:37:32.074Z,6.40
2019-02-23T12:40:01.207Z,5.93
2019-02-23T12:42:30.424Z,6.00
2019-02-23T12:44:59.618Z,5.97
2019-02-23T12:47:28.836Z,5.10
2019-02-23T12:49:58.044Z,5.73
2019-02-23T12:52:27.251Z,5.83
2019-02-23T12:54:56.455Z,5.60
2019-02-23T12:57:25.667Z,5.77
2019-02-23T12:59:54.872Z,6.17
2019-02-23T13:02:24.080Z,6.10
2019-02-23T13:04:53.297Z,5.70
2019-02-23T13:07:22.512Z,5.43
2019-02-23T13:09:53.892Z,5.40
2019-02-23T13:12:31.615Z,5.40
2019-02-23T13:15:08.167Z,5.60
2019-02-23T13:18:12.135Z,4.93
2019-02-23T13:21:16.291Z,5.90
2019-02-23T13:24:28.561Z,5.67
2019-02-23T13:27:47.516Z,5.10
2019-02-23T13:30:52.367Z,5.67
2019-02-23T13:34:03.743Z,5.33
2019-02-23T13:37:29.087Z,4.73
2019-02-23T13:40:20.812Z,4.57
2019-02-23T13:43:24.060Z,5.30
2019-02-23T13:46:16.392Z,5.23
2019-02-23T13:49:21.499Z,4.83
2019-02-23T13:52:16.831Z,5.23
2019-02-23T13:55:12.592Z,4.47
2019-02-23T13:58:25.867Z,5.07
2019-02-23T14:01:34.427Z,4.83
2019-02-23T14:04:40.443Z,4.57
2019-02-23T14:08:06.631Z,5.73
2019-02-23T14:11:08.785Z,4.07
2019-02-23T14:14:31.514Z,4.33
2019-02-23T14:17:26.605Z,3.90
2019-02-23T14:20:37.551Z,4.47
2019-02-23T14:23:34.320Z,4.17
2019-02-23T14:26:49.581Z,3.83
2019-02-23T14:29:59.839Z,4.80
2019-02-23T14:32:54.412Z,4.00
2019-02-23T14:35:40.753Z,4.87
2019-02-23T14:38:19.154Z,4.10
2019-02-23T14:41:16.840Z,3.60
2019-02-23T14:44:27.558Z,4.43
2019-02-23T14:47:31.155Z,4.10
2019-02-23T14:50:31.690Z,4.10
2019-02-23T14:53:30.300Z,4.40
2019-02-23T14:56:39.688Z,3.47
2019-02-23T14:59:34.260Z,4.33
2019-02-23T15:02:59.036Z,5.50
2019-02-23T15:06:04.406Z,4.77
2019-02-23T15:09:20.879Z,4.27
2019-02-23T15:12:18.071Z,4.40
2019-02-23T15:15:37.930Z,4.77
2019-02-23T15:18:33.764Z,4.37
2019-02-23T15:21:34.393Z,4.40
2019-02-23T15:24:49.154Z,3.80
2019-02-23T15:27:52.404Z,4.53
2019-02-23T15:30:58.907Z,4.43
2019-02-23T15:34:20.244Z,4.57
2019-02-23T15:37:20.224Z,5.40
2019-02-23T15:40:20.973Z,5.17
2019-02-23T15:43:15.321Z,5.47
2019-02-23T15:46:30.583Z,5.73
2019-02-23T15:49:31.318Z,5.53
2019-02-23T15:52:02.129Z,5.77
2019-02-23T15:54:31.297Z,5.60
2019-02-23T15:57:00.566Z,6.37
2019-02-23T15:59:29.739Z,5.33
2019-02-23T16:01:58.959Z,6.40
2019-02-23T16:04:28.164Z,5.70
2019-02-23T16:06:57.387Z,5.33
2019-02-23T16:09:26.651Z,5.80
2019-02-23T16:11:55.910Z,6.20
2019-02-23T16:14:25.114Z,5.70
2019-02-23T16:16:54.309Z,5.97
2019-02-23T16:19:23.591Z,5.60
2019-02-23T16:21:53.148Z,5.70
2019-02-23T16:24:22.415Z,5.20
2019-02-23T16:26:51.686Z,5.70
2019-02-23T16:29:20.987Z,5.80
2019-02-23T16:31:50.207Z,5.23
2019-02-23T16:34:19.453Z,6.27
2019-02-23T16:36:48.643Z,5.37
2019-02-23T16:39:17.850Z,5.80
2019-02-23T16:41:47.039Z,5.70
2019-02-23T16:44:16.331Z,5.13
2019-02-23T16:46:46.394Z,6.10
2019-02-23T16:49:16.058Z,6.27
2019-02-23T16:51:45.189Z,6.17
2019-02-23T16:54:14.451Z,6.03
2019-02-23T16:56:43.667Z,5.47
2019-02-23T16:59:12.854Z,5.70
2019-02-23T17:01:42.133Z,5.70
2019-02-23T17:04:11.351Z,5.33
2019-02-23T17:06:40.578Z,5.60
2019-02-23T17:09:10.517Z,5.97
2019-02-23T17:11:39.657Z,6.33
2019-02-23T17:14:08.869Z,7.23
2019-02-23T17:16:38.101Z,6.87
2019-02-23T17:19:07.326Z,6.43
2019-02-23T17:21:36.515Z,6.93
2019-02-23T17:24:05.728Z,6.20
2019-02-23T17:26:36.815Z,6.03
2019-02-23T17:29:05.803Z,6.73
2019-02-23T17:31:35.008Z,6.27
2019-02-23T17:34:04.244Z,5.93
2019-02-23T17:36:33.423Z,6.57
2019-02-23T17:39:02.641Z,6.60
2019-02-23T17:41:32.023Z,6.73
2019-02-23T17:44:01.396Z,7.30
2019-02-23T17:46:30.592Z,7.03
2019-02-23T17:48:59.811Z,6.80
2019-02-23T17:51:29.024Z,6.87
2019-02-23T17:53:58.306Z,6.63
2019-02-23T17:56:27.549Z,7.27
2019-02-23T17:58:56.796Z,7.27
2019-02-23T18:01:26.109Z,6.87
2019-02-23T18:03:55.328Z,8.07
2019-02-23T18:06:24.561Z,7.70
2019-02-23T18:08:53.851Z,8.77
2019-02-23T18:11:23.060Z,9.10
2019-02-23T18:13:52.307Z,9.47
2019-02-23T18:16:21.531Z,10.50
2019-02-23T18:18:50.744Z,12.03
2019-02-23T18:21:19.955Z,10.10
2019-02-23T18:23:49.208Z,9.67
2019-02-23T18:26:21.112Z,9.20
2019-02-23T18:28:49.251Z,10.77
2019-02-23T18:31:18.548Z,12.27
2019-02-23T18:33:47.771Z,13.03
2019-02-23T18:36:17.072Z,11.10
2019-02-23T18:38:46.325Z,9.03
2019-02-23T18:41:15.595Z,12.10
2019-02-23T18:43:44.789Z,10.63
2019-02-23T18:46:14.146Z,8.80
2019-02-23T18:48:43.456Z,8.20
2019-02-23T18:51:12.703Z,7.97
2019-02-23T18:53:41.949Z,7.93
2019-02-23T18:56:11.164Z,8.33
2019-02-23T18:58:40.386Z,8.07
2019-02-23T19:01:09.616Z,8.13
2019-02-23T19:03:38.817Z,8.27
2019-02-23T19:06:08.051Z,7.50
2019-02-23T19:08:37.243Z,8.40
2019-02-23T19:11:06.433Z,9.07
2019-02-23T19:13:35.644Z,8.37
2019-02-23T19:16:04.876Z,8.30
2019-02-23T19:18:34.163Z,8.03
2019-02-23T19:21:03.372Z,7.97
2019-02-23T19:23:32.555Z,9.77
2019-02-23T19:26:01.839Z,11.03
2019-02-23T19:28:31.051Z,8.93
2019-02-23T19:31:00.235Z,9.00
2019-02-23T19:33:29.406Z,9.23
2019-02-23T19:35:58.747Z,8.20
2019-02-23T19:38:28.059Z,9.13
2019-02-23T19:40:57.334Z,7.37
2019-02-23T19:43:26.515Z,7.80
2019-02-23T19:45:55.746Z,8.77
2019-02-23T19:48:24.988Z,9.03
2019-02-23T19:50:58.101Z,8.63
2019-02-23T19:53:27.327Z,10.63
2019-02-23T19:55:56.446Z,9.00
2019-02-23T19:58:25.712Z,11.40
2019-02-23T20:00:54.919Z,7.73
2019-02-23T20:03:24.141Z,6.77
2019-02-23T20:05:53.500Z,12.47
2019-02-23T20:08:22.732Z,11.53
2019-02-23T20:10:51.975Z,15.03
2019-02-23T20:13:21.185Z,15.90
2019-02-23T20:15:50.428Z,13.27
2019-02-23T20:18:19.664Z,9.97
2019-02-23T20:20:48.896Z,33.50
2019-02-23T20:23:18.204Z,19.93
2019-02-23T20:25:47.415Z,10.50
2019-02-23T20:28:16.650Z,8.40
2019-02-23T20:30:45.851Z,7.50
2019-02-23T20:33:15.050Z,6.87
2019-02-23T20:35:44.273Z,6.80
2019-02-23T20:38:13.461Z,6.70
2019-02-23T20:40:42.668Z,6.97
2019-02-23T20:43:11.848Z,6.80
2019-02-23T20:45:41.071Z,7.37
2019-02-23T20:48:10.313Z,8.07
2019-02-23T20:50:40.230Z,7.53
2019-02-23T20:53:09.635Z,6.30
2019-02-23T20:55:38.917Z,6.50
2019-02-23T20:58:08.187Z,6.50
2019-02-23T21:00:37.392Z,6.83
2019-02-23T21:03:06.589Z,7.13
2019-02-23T21:05:35.891Z,6.80
2019-02-23T21:08:05.083Z,6.13
2019-02-23T21:10:34.328Z,6.63
2019-02-23T21:13:03.529Z,9.00
2019-02-23T21:15:32.784Z,8.70
2019-02-23T21:18:01.999Z,12.93
2019-02-23T21:20:31.215Z,9.13
2019-02-23T21:23:00.409Z,10.93
2019-02-23T21:25:31.295Z,8.70
2019-02-23T21:28:00.661Z,9.10
2019-02-23T21:30:29.877Z,8.10
2019-02-23T21:32:59.085Z,8.07
2019-02-23T21:35:28.319Z,8.27
2019-02-23T21:37:57.516Z,8.30
2019-02-23T21:40:26.696Z,9.37
2019-02-23T21:42:55.932Z,8.93
2019-02-23T21:45:25.147Z,10.67
2019-02-23T21:47:54.364Z,8.60
2019-02-23T21:50:23.591Z,10.67
2019-02-23T21:52:52.831Z,10.00
2019-02-23T21:55:22.156Z,8.90
2019-02-23T21:57:51.351Z,8.27
2019-02-23T22:00:20.618Z,8.80
2019-02-23T22:02:49.849Z,8.27
2019-02-23T22:05:22.240Z,8.50
2019-02-23T22:07:51.447Z,9.30
2019-02-23T22:10:20.672Z,8.47
2019-02-23T22:12:50.023Z,8.53
2019-02-23T22:15:19.267Z,9.37
2019-02-23T22:17:48.489Z,8.23
2019-02-23T22:20:17.780Z,8.70
2019-02-23T22:22:46.983Z,8.73
2019-02-23T22:25:16.213Z,8.73
2019-02-23T22:27:45.424Z,9.30
2019-02-23T22:30:14.245Z,8.87
2019-02-23T22:32:43.423Z,8.47
2019-02-23T22:35:12.664Z,9.90
2019-02-23T22:37:41.842Z,9.93
2019-02-23T22:40:11.060Z,9.60
2019-02-23T22:42:40.259Z,10.17
2019-02-23T22:45:09.570Z,9.80
2019-02-23T22:47:38.816Z,10.43
2019-02-23T22:50:08.552Z,10.33
2019-02-23T22:52:37.776Z,10.43
2019-02-23T22:55:07.112Z,10.00
2019-02-23T22:57:40.560Z,10.03
2019-02-23T23:00:09.034Z,10.83
2019-02-23T23:02:38.256Z,11.70
2019-02-23T23:05:07.572Z,10.47
2019-02-23T23:07:36.784Z,10.90
2019-02-23T23:10:06.055Z,11.67
2019-02-23T23:12:35.280Z,11.07
2019-02-23T23:15:04.459Z,11.87
2019-02-23T23:17:33.688Z,11.60
2019-02-23T23:20:02.895Z,11.17
2019-02-23T23:22:32.181Z,12.10
2019-02-23T23:25:01.425Z,11.47
2019-02-23T23:27:30.644Z,12.17
2019-02-23T23:29:59.878Z,11.90
2019-02-23T23:32:29.092Z,12.30
2019-02-23T23:34:58.254Z,11.60
2019-02-23T23:37:27.517Z,12.40
2019-02-23T23:39:56.707Z,12.00
2019-02-23T23:42:25.943Z,12.23
2019-02-23T23:44:55.103Z,12.03
2019-02-23T23:47:24.285Z,10.70
2019-02-23T23:49:53.519Z,11.53
2019-02-23T23:52:22.724Z,11.73
2019-02-23T23:54:51.996Z,11.20
2019-02-23T23:57:21.200Z,11.93
2019-02-23T23:59:50.458Z,12.10
